createdAt,value
2018-11-29T00:02:24.412Z,101855.14
2018-11-29T00:05:29.768Z,101838.41
2018-11-29T00:08:35.165Z,101835.84
2018-11-29T00:11:40.629Z,101826.48
2018-11-29T00:14:45.984Z,101832.48
2018-11-29T00:17:51.416Z,101845.25
2018-11-29T00:20:56.937Z,101869.69
2018-11-29T00:24:02.415Z,101877.82
2018-11-29T00:27:07.820Z,101872.23
2018-11-29T00:30:19.108Z,101866.45
2018-11-29T00:33:24.516Z,101856.30
2018-11-29T00:36:29.916Z,101844.80
2018-11-29T00:39:35.392Z,101829.86
2018-11-29T00:42:40.886Z,101842.20
2018-11-29T00:45:46.233Z,101849.05
2018-11-29T00:48:52.136Z,101849.09
2018-11-29T00:51:57.695Z,101844.35
2018-11-29T00:55:03.118Z,101836.70
2018-11-29T00:58:08.499Z,101842.23
2018-11-29T01:01:13.952Z,101822.59
2018-11-29T01:04:19.388Z,101817.08
2018-11-29T01:07:26.986Z,101818.72
2018-11-29T01:10:32.411Z,101811.42
2018-11-29T01:13:37.841Z,101814.02
2018-11-29T01:16:43.204Z,101806.83
2018-11-29T01:19:48.572Z,101809.25
2018-11-29T01:22:54.064Z,101825.59
2018-11-29T01:25:59.468Z,101828.09
2018-11-29T01:29:04.848Z,101824.24
2018-11-29T01:32:10.275Z,101823.05
2018-11-29T01:35:18.486Z,101812.70
2018-11-29T01:38:23.928Z,101810.56
2018-11-29T01:41:29.368Z,101801.46
2018-11-29T01:44:34.741Z,101785.70
2018-11-29T01:47:40.373Z,101800.67
2018-11-29T01:50:45.844Z,101792.13
2018-11-29T01:53:51.276Z,101788.34
2018-11-29T01:56:56.699Z,101788.27
2018-11-29T02:00:02.908Z,101807.91
2018-11-29T02:03:09.216Z,101797.64
2018-11-29T02:06:14.584Z,101796.80
2018-11-29T02:09:20.052Z,101804.19
2018-11-29T02:12:25.584Z,101811.36
2018-11-29T02:15:30.990Z,101806.70
2018-11-29T02:18:36.420Z,101793.00
2018-11-29T02:21:41.864Z,101772.98
2018-11-29T02:24:47.304Z,101767.44
2018-11-29T02:27:53.497Z,101766.99
2018-11-29T02:30:58.949Z,101773.02
2018-11-29T02:34:05.084Z,101781.05
2018-11-29T02:37:10.504Z,101792.23
2018-11-29T02:40:17.330Z,101781.59
2018-11-29T02:43:22.860Z,101786.78
2018-11-29T02:46:28.200Z,101788.47
2018-11-29T02:49:33.688Z,101789.80
2018-11-29T02:52:40.207Z,101789.74
2018-11-29T02:55:45.686Z,101793.19
2018-11-29T02:58:51.133Z,101796.20
2018-11-29T03:01:56.946Z,101783.74
2018-11-29T03:05:02.345Z,101780.36
2018-11-29T03:08:07.764Z,101789.80
2018-11-29T03:11:13.239Z,101776.97
2018-11-29T03:14:18.687Z,101777.35
2018-11-29T03:17:24.324Z,101774.82
2018-11-29T03:20:29.803Z,101764.09
2018-11-29T03:23:35.491Z,101758.47
2018-11-29T03:26:40.843Z,101767.03
2018-11-29T03:29:46.232Z,101757.63
2018-11-29T03:32:51.703Z,101761.05
2018-11-29T03:35:57.133Z,101752.12
2018-11-29T03:39:02.756Z,101746.13
2018-11-29T03:42:08.149Z,101757.29
2018-11-29T03:45:15.238Z,101749.97
2018-11-29T03:48:20.584Z,101751.19
2018-11-29T03:51:26.319Z,101739.23
2018-11-29T03:54:31.768Z,101736.66
2018-11-29T03:57:37.297Z,101743.97
2018-11-29T04:00:42.772Z,101737.97
2018-11-29T04:03:48.124Z,101734.13
2018-11-29T04:06:53.570Z,101741.87
2018-11-29T04:09:59.008Z,101736.33
2018-11-29T04:13:04.800Z,101736.31
2018-11-29T04:16:10.221Z,101734.63
2018-11-29T04:19:15.621Z,101724.31
2018-11-29T04:22:21.001Z,101723.83
2018-11-29T04:25:26.464Z,101711.70
2018-11-29T04:28:31.888Z,101724.97
2018-11-29T04:31:37.361Z,101727.22
2018-11-29T04:34:42.696Z,101721.13
2018-11-29T04:37:48.048Z,101724.08
2018-11-29T04:40:53.604Z,101725.48
2018-11-29T04:43:58.929Z,101727.16
2018-11-29T04:47:04.423Z,101729.25
2018-11-29T04:50:10.046Z,101720.27
2018-11-29T04:53:15.606Z,101714.73
2018-11-29T04:56:21.047Z,101721.63
2018-11-29T04:59:26.376Z,101724.10
2018-11-29T05:02:31.860Z,101721.18
2018-11-29T05:05:37.195Z,101715.05
2018-11-29T05:08:42.644Z,101716.01
2018-11-29T05:11:48.209Z,101717.70
2018-11-29T05:14:53.538Z,101712.97
2018-11-29T05:17:58.988Z,101705.74
2018-11-29T05:21:04.504Z,101704.02
2018-11-29T05:24:09.893Z,101696.81
2018-11-29T05:27:15.336Z,101700.23
2018-11-29T05:30:20.759Z,101701.51
2018-11-29T05:33:26.236Z,101709.27
2018-11-29T05:36:31.659Z,101699.36
2018-11-29T05:39:37.132Z,101703.63
2018-11-29T05:42:43.195Z,101708.72
2018-11-29T05:45:48.623Z,101705.33
2018-11-29T05:48:53.988Z,101706.19
2018-11-29T05:51:59.540Z,101709.14
2018-11-29T05:55:06.191Z,101696.84
2018-11-29T05:58:11.571Z,101693.47
2018-11-29T06:01:20.240Z,101684.81
2018-11-29T06:04:25.602Z,101686.08
2018-11-29T06:07:31.109Z,101671.59
2018-11-29T06:10:36.508Z,101671.17
2018-11-29T06:13:41.876Z,101684.39
2018-11-29T06:16:47.337Z,101687.05
2018-11-29T06:19:52.777Z,101680.14
2018-11-29T06:22:58.269Z,101681.52
2018-11-29T06:26:03.607Z,101687.94
2018-11-29T06:29:09.040Z,101687.52
2018-11-29T06:32:14.479Z,101687.89
2018-11-29T06:35:19.851Z,101684.05
2018-11-29T06:38:25.276Z,101688.30
2018-11-29T06:41:30.715Z,101685.27
2018-11-29T06:44:36.156Z,101683.15
2018-11-29T06:47:41.601Z,101677.22
2018-11-29T06:50:47.078Z,101674.67
2018-11-29T06:53:58.660Z,101667.39
2018-11-29T06:57:04.090Z,101663.98
2018-11-29T07:00:21.005Z,101663.55
2018-11-29T07:03:28.941Z,101666.11
2018-11-29T07:06:32.488Z,101678.11
2018-11-29T07:09:37.903Z,101679.38
2018-11-29T07:12:43.405Z,101667.85
2018-11-29T07:15:49.261Z,101671.27
2018-11-29T07:18:54.659Z,101660.16
2018-11-29T07:22:00.189Z,101660.20
2018-11-29T07:25:06.968Z,101660.16
2018-11-29T07:28:12.509Z,101660.59
2018-11-29T07:31:18.605Z,101659.75
2018-11-29T07:34:24.031Z,101655.48
2018-11-29T07:37:29.576Z,101653.36
2018-11-29T07:40:34.964Z,101654.22
2018-11-29T07:43:40.765Z,101644.84
2018-11-29T07:46:47.695Z,101644.41
2018-11-29T07:49:53.336Z,101637.16
2018-11-29T07:52:59.710Z,101640.59
2018-11-29T07:56:05.270Z,101640.56
2018-11-29T07:59:10.698Z,101641.85
2018-11-29T08:02:16.452Z,101644.00
2018-11-29T08:05:21.993Z,101644.00
2018-11-29T08:08:27.475Z,101637.53
2018-11-29T08:11:33.000Z,101631.16
2018-11-29T08:14:38.492Z,101632.45
2018-11-29T08:17:44.608Z,101629.89
2018-11-29T08:20:50.181Z,101635.88
2018-11-29T08:23:55.608Z,101627.73
2018-11-29T08:27:01.062Z,101630.75
2018-11-29T08:30:10.370Z,101635.89
2018-11-29T08:33:15.797Z,101636.75
2018-11-29T08:36:21.214Z,101639.73
2018-11-29T08:39:26.556Z,101639.28
2018-11-29T08:42:32.005Z,101631.61
2018-11-29T08:45:37.445Z,101640.59
2018-11-29T08:48:43.209Z,101637.61
2018-11-29T08:51:48.728Z,101629.03
2018-11-29T08:54:54.096Z,101622.19
2018-11-29T08:57:59.460Z,101623.45
2018-11-29T09:01:04.895Z,101616.20
2018-11-29T09:04:10.654Z,101635.44
2018-11-29T09:07:16.192Z,101619.20
2018-11-29T09:10:31.374Z,101620.03
2018-11-29T09:13:30.303Z,101622.19
2018-11-29T09:16:35.700Z,101611.48
2018-11-29T09:19:41.161Z,101607.64
2018-11-29T09:22:46.682Z,101601.22
2018-11-29T09:25:52.033Z,101615.75
2018-11-29T09:28:57.413Z,101608.08
2018-11-29T09:32:02.837Z,101596.49
2018-11-29T09:35:09.056Z,101601.66
2018-11-29T09:38:14.476Z,101595.63
2018-11-29T09:41:19.986Z,101597.75
2018-11-29T09:44:25.383Z,101586.66
2018-11-29T09:47:30.796Z,101591.77
2018-11-29T09:50:36.680Z,101602.48
2018-11-29T09:53:42.145Z,101594.75
2018-11-29T09:56:47.551Z,101586.14
2018-11-29T09:59:52.945Z,101588.28
2018-11-29T10:03:08.996Z,101588.66
2018-11-29T10:06:14.369Z,101578.44
2018-11-29T10:09:19.720Z,101572.47
2018-11-29T10:12:25.264Z,101574.61
2018-11-29T10:15:30.709Z,101574.55
2018-11-29T10:18:36.083Z,101572.91
2018-11-29T10:21:41.639Z,101563.45
2018-11-29T10:24:47.056Z,101565.99
2018-11-29T10:27:55.920Z,101562.11
2018-11-29T10:31:03.432Z,101558.70
2018-11-29T10:34:08.941Z,101563.83
2018-11-29T10:37:14.364Z,101551.80
2018-11-29T10:40:19.732Z,101552.20
2018-11-29T10:43:25.264Z,101554.02
2018-11-29T10:46:30.744Z,101544.17
2018-11-29T10:49:36.809Z,101548.02
2018-11-29T10:52:42.536Z,101548.39
2018-11-29T10:55:47.940Z,101541.92
2018-11-29T10:58:53.346Z,101534.16
2018-11-29T11:02:04.045Z,101530.23
2018-11-29T11:05:09.873Z,101534.11
2018-11-29T11:08:16.062Z,101528.98
2018-11-29T11:11:21.409Z,101525.53
2018-11-29T11:14:26.740Z,101527.20
2018-11-29T11:17:32.183Z,101519.06
2018-11-29T11:20:37.654Z,101525.02
2018-11-29T11:23:43.067Z,101517.38
2018-11-29T11:26:48.527Z,101506.56
2018-11-29T11:29:53.965Z,101507.36
2018-11-29T11:32:59.533Z,101511.78
2018-11-29T11:36:05.685Z,101507.53
2018-11-29T11:39:11.124Z,101511.77
2018-11-29T11:42:17.421Z,101509.28
2018-11-29T11:45:23.044Z,101495.50
2018-11-29T11:48:28.647Z,101509.98
2018-11-29T11:51:34.164Z,101501.39
2018-11-29T11:54:39.540Z,101507.07
2018-11-29T11:57:46.389Z,101495.12
2018-11-29T12:00:51.932Z,101495.91
2018-11-29T12:03:57.284Z,101493.27
2018-11-29T12:07:02.750Z,101495.91
2018-11-29T12:10:15.249Z,101498.00
2018-11-29T12:13:23.980Z,101498.41
2018-11-29T12:16:29.355Z,101487.37
2018-11-29T12:19:34.772Z,101494.27
2018-11-29T12:22:40.992Z,101483.03
2018-11-29T12:25:46.364Z,101479.14
2018-11-29T12:28:51.830Z,101468.03
2018-11-29T12:31:57.156Z,101477.36
2018-11-29T12:35:11.511Z,101476.02
2018-11-29T12:38:22.040Z,101470.05
2018-11-29T12:41:27.540Z,101440.75
2018-11-29T12:44:33.027Z,101430.42
2018-11-29T12:47:38.450Z,101426.13
2018-11-29T12:50:43.831Z,101431.60
2018-11-29T12:53:49.480Z,101430.24
2018-11-29T12:56:54.987Z,101448.84
2018-11-29T13:00:02.517Z,101439.50
2018-11-29T13:03:07.942Z,101425.98
2018-11-29T13:06:13.412Z,101403.77
2018-11-29T13:09:18.772Z,101429.55
2018-11-29T13:12:24.124Z,101399.95
2018-11-29T13:15:34.361Z,101393.89
2018-11-29T13:18:39.993Z,101395.09
2018-11-29T13:21:45.469Z,101397.38
2018-11-29T13:24:50.908Z,101389.98
2018-11-29T13:27:56.638Z,101382.18
2018-11-29T13:31:02.017Z,101380.77
2018-11-29T13:34:07.637Z,101369.58
2018-11-29T13:37:13.137Z,101370.91
2018-11-29T13:43:23.889Z,101372.16
2018-11-29T13:46:29.260Z,101369.63
2018-11-29T13:49:34.697Z,101358.98
2018-11-29T13:52:40.270Z,101353.61
2018-11-29T13:55:45.986Z,101353.42
2018-11-29T13:58:51.356Z,101344.19
2018-11-29T14:01:56.888Z,101337.41
2018-11-29T14:05:02.269Z,101333.99
2018-11-29T14:08:09.139Z,101314.86
2018-11-29T14:11:14.745Z,101314.86
2018-11-29T14:14:20.220Z,101311.89
2018-11-29T14:17:25.630Z,101313.93
2018-11-29T14:20:31.020Z,101299.38
2018-11-29T14:23:36.488Z,101294.94
2018-11-29T14:26:41.936Z,101296.75
2018-11-29T14:29:47.410Z,101313.74
2018-11-29T14:32:53.988Z,101323.33
2018-11-29T14:35:59.884Z,101332.44
2018-11-29T14:39:07.200Z,101319.92
2018-11-29T14:42:12.584Z,101315.80
2018-11-29T14:45:21.198Z,101313.94
2018-11-29T14:48:26.672Z,101308.83
2018-11-29T14:51:32.229Z,101313.58
2018-11-29T14:54:37.647Z,101298.54
2018-11-29T14:57:42.997Z,101309.72
2018-11-29T15:00:48.520Z,101294.19
2018-11-29T15:03:53.933Z,101297.60
2018-11-29T15:06:59.372Z,101295.91
2018-11-29T15:10:05.920Z,101302.41
2018-11-29T15:13:13.068Z,101302.44
2018-11-29T15:16:18.405Z,101295.02
2018-11-29T15:19:24.484Z,101300.36
2018-11-29T15:22:30.288Z,101289.28
2018-11-29T15:25:35.637Z,101272.25
2018-11-29T15:28:41.101Z,101263.25
2018-11-29T15:31:46.590Z,101252.16
2018-11-29T15:34:52.057Z,101248.09
2018-11-29T15:37:57.492Z,101265.33
2018-11-29T15:41:02.932Z,101272.36
2018-11-29T15:44:08.650Z,101277.19
2018-11-29T15:47:13.989Z,101282.64
2018-11-29T15:50:19.380Z,101267.65
2018-11-29T15:53:26.996Z,101257.45
2018-11-29T15:56:32.400Z,101250.77
2018-11-29T15:59:37.807Z,101246.38
2018-11-29T16:02:43.623Z,101243.05
2018-11-29T16:05:49.048Z,101239.73
2018-11-29T16:08:55.090Z,101247.69
2018-11-29T16:12:00.583Z,101249.14
2018-11-29T16:15:11.025Z,101243.55
2018-11-29T16:18:17.056Z,101221.77
2018-11-29T16:21:22.588Z,101228.05
2018-11-29T16:24:28.057Z,101233.54
2018-11-29T16:27:33.398Z,101221.61
2018-11-29T16:30:50.619Z,101220.37
2018-11-29T16:33:58.121Z,101216.80
2018-11-29T16:37:03.845Z,101220.28
2018-11-29T16:40:10.746Z,101213.22
2018-11-29T16:43:16.278Z,101216.56
2018-11-29T16:46:21.644Z,101208.19
2018-11-29T16:49:27.115Z,101211.50
2018-11-29T16:52:32.539Z,101206.84
2018-11-29T16:55:38.470Z,101225.81
2018-11-29T16:58:43.823Z,101203.25
2018-11-29T17:01:49.272Z,101199.96
2018-11-29T17:04:54.711Z,101196.44
2018-11-29T17:08:00.096Z,101200.30
2018-11-29T17:11:05.892Z,101189.05
2018-11-29T17:14:11.291Z,101182.48
2018-11-29T17:17:16.684Z,101179.02
2018-11-29T17:20:22.199Z,101164.97
2018-11-29T17:23:27.680Z,101157.80
2018-11-29T17:26:33.763Z,101152.22
2018-11-29T17:29:39.139Z,101159.44
2018-11-29T17:32:44.929Z,101152.03
2018-11-29T17:35:50.303Z,101150.17
2018-11-29T17:38:55.680Z,101148.11
2018-11-29T17:42:01.214Z,101131.83
2018-11-29T17:45:09.394Z,101135.99
2018-11-29T17:48:14.978Z,101133.73
2018-11-29T17:51:20.424Z,101139.78
2018-11-29T17:54:25.811Z,101133.23
2018-11-29T17:57:31.229Z,101134.08
2018-11-29T18:00:36.985Z,101123.05
2018-11-29T18:03:42.395Z,101088.35
2018-11-29T18:06:47.764Z,101098.50
2018-11-29T18:09:53.168Z,101085.70
2018-11-29T18:13:06.683Z,101081.20
2018-11-29T18:16:12.026Z,101071.91
2018-11-29T18:19:17.408Z,101063.58
2018-11-29T18:22:22.862Z,101042.27
2018-11-29T18:25:28.256Z,101044.66
2018-11-29T18:28:33.637Z,101041.56
2018-11-29T18:31:39.097Z,101051.44
2018-11-29T18:34:44.460Z,101047.36
2018-11-29T18:37:50.223Z,101048.89
2018-11-29T18:40:55.690Z,101056.42
2018-11-29T18:44:01.066Z,101054.53
2018-11-29T18:47:07.088Z,101061.09
2018-11-29T18:50:21.617Z,101106.75
2018-11-29T18:53:27.004Z,101167.17
2018-11-29T18:56:32.365Z,101139.09
2018-11-29T18:59:37.750Z,101146.50
2018-11-29T19:02:43.402Z,101145.60
2018-11-29T19:05:48.775Z,101146.63
2018-11-29T19:08:54.177Z,101134.72
2018-11-29T19:11:59.552Z,101139.01
2018-11-29T19:15:06.704Z,101120.40
2018-11-29T19:18:12.059Z,101116.81
2018-11-29T19:21:17.571Z,101105.97
2018-11-29T19:24:22.970Z,101100.67
2018-11-29T19:27:28.436Z,101091.48
2018-11-29T19:30:34.278Z,101085.44
2018-11-29T19:33:39.918Z,101108.86
2018-11-29T19:36:45.293Z,101113.62
2018-11-29T19:39:50.676Z,101108.86
2018-11-29T19:42:56.104Z,101085.58
2018-11-29T19:46:01.495Z,101100.23
2018-11-29T19:49:07.239Z,101086.30
2018-11-29T19:52:12.669Z,101087.95
2018-11-29T19:55:20.337Z,101082.50
2018-11-29T19:58:25.782Z,101068.48
2018-11-29T20:01:31.268Z,101076.12
2018-11-29T20:04:36.640Z,101083.27
2018-11-29T20:07:42.065Z,101084.93
2018-11-29T20:10:47.545Z,101107.28
2018-11-29T20:13:52.957Z,101106.69
2018-11-29T20:16:58.320Z,101112.97
2018-11-29T20:20:04.132Z,101101.53
2018-11-29T20:23:11.066Z,101088.88
2018-11-29T20:26:16.427Z,101096.36
2018-11-29T20:29:21.888Z,101100.16
2018-11-29T20:32:27.397Z,101112.37
2018-11-29T20:35:32.809Z,101103.95
2018-11-29T20:38:38.159Z,101115.39
2018-11-29T20:41:43.772Z,101119.80
2018-11-29T20:44:49.228Z,101118.61
2018-11-29T20:47:54.711Z,101113.23
2018-11-29T20:51:01.008Z,101110.02
2018-11-29T20:54:06.463Z,101112.01
2018-11-29T20:57:11.827Z,101106.78
2018-11-29T21:00:17.245Z,101106.61
2018-11-29T21:03:22.728Z,101090.23
2018-11-29T21:06:28.148Z,101096.36
2018-11-29T21:09:33.509Z,101102.30
2018-11-29T21:12:39.008Z,101096.84
2018-11-29T21:15:44.491Z,101093.78
2018-11-29T21:18:49.876Z,101097.60
2018-11-29T21:21:55.402Z,101103.09
2018-11-29T21:25:00.741Z,101094.70
2018-11-29T21:28:07.332Z,101094.61
2018-11-29T21:31:12.753Z,101087.36
2018-11-29T21:34:18.892Z,101082.20
2018-11-29T21:37:24.342Z,101078.92
2018-11-29T21:40:31.918Z,101077.47
2018-11-29T21:43:37.284Z,101079.11
2018-11-29T21:46:42.712Z,101087.09
2018-11-29T21:49:48.092Z,101090.66
2018-11-29T21:52:53.568Z,101091.20
2018-11-29T21:55:58.922Z,101082.84
2018-11-29T21:59:04.305Z,101081.05
2018-11-29T22:02:10.045Z,101077.30
2018-11-29T22:05:15.501Z,101070.02
2018-11-29T22:08:20.980Z,101076.75
2018-11-29T22:11:26.509Z,101066.44
2018-11-29T22:14:31.944Z,101058.02
2018-11-29T22:17:48.935Z,101054.38
2018-11-29T22:21:00.132Z,101046.31
2018-11-29T22:24:05.713Z,101045.89
2018-11-29T22:27:11.089Z,101047.55
2018-11-29T22:30:16.452Z,101040.98
2018-11-29T22:33:21.908Z,101045.31
2018-11-29T22:36:27.323Z,101042.91
2018-11-29T22:39:32.769Z,101048.70
2018-11-29T22:42:38.274Z,101043.81
2018-11-29T22:45:43.631Z,101048.27
2018-11-29T22:48:49.037Z,101056.97
2018-11-29T22:51:54.848Z,101051.58
2018-11-29T22:55:00.256Z,101052.45
2018-11-29T22:58:06.040Z,101060.59
2018-11-29T23:01:16.565Z,101053.23
2018-11-29T23:04:22.014Z,101050.90
2018-11-29T23:07:27.423Z,101053.85
2018-11-29T23:10:32.859Z,101056.17
2018-11-29T23:13:38.400Z,101049.36
2018-11-29T23:16:43.863Z,101041.22
2018-11-29T23:19:49.236Z,101031.07
2018-11-29T23:22:54.755Z,101029.72
2018-11-29T23:26:00.144Z,101028.20
2018-11-29T23:29:06.028Z,101024.47
2018-11-29T23:32:11.492Z,101024.24
2018-11-29T23:35:17.618Z,101029.30
2018-11-29T23:38:23.054Z,101040.30
2018-11-29T23:41:28.676Z,101036.90
2018-11-29T23:44:36.605Z,101031.16
2018-11-29T23:47:42.718Z,101033.20
2018-11-29T23:51:00.169Z,101049.14
2018-11-29T23:54:05.796Z,101050.83
2018-11-29T23:57:11.168Z,101054.64
